sensor_id;sensor_type;location;lat;lon;timestamp;P1;durP1;ratioP1;P2;durP2;ratioP2
56830;SDS011;42713;42.676;23.352;2023-08-20T00:01:38;13.80;;;5.53;;
56830;SDS011;42713;42.676;23.352;2023-08-20T00:04:04;11.30;;;5.57;;
56830;SDS011;42713;42.676;23.352;2023-08-20T00:06:30;12.27;;;5.18;;
56830;SDS011;42713;42.676;23.352;2023-08-20T00:08:56;12.50;;;5.25;;
56830;SDS011;42713;42.676;23.352;2023-08-20T00:11:21;9.18;;;5.05;;
56830;SDS011;42713;42.676;23.352;2023-08-20T00:13:46;10.40;;;5.30;;
56830;SDS011;42713;42.676;23.352;2023-08-20T00:16:12;11.40;;;5.30;;
56830;SDS011;42713;42.676;23.352;2023-08-20T00:18:38;11.32;;;5.00;;
56830;SDS011;42713;42.676;23.352;2023-08-20T00:21:04;13.75;;;5.38;;
56830;SDS011;42713;42.676;23.352;2023-08-20T00:23:30;12.57;;;5.40;;
56830;SDS011;42713;42.676;23.352;2023-08-20T00:25:56;10.52;;;5.05;;
56830;SDS011;42713;42.676;23.352;2023-08-20T00:28:22;9.30;;;5.38;;
56830;SDS011;42713;42.676;23.352;2023-08-20T00:30:47;12.82;;;5.30;;
56830;SDS011;42713;42.676;23.352;2023-08-20T00:33:14;14.00;;;5.40;;
56830;SDS011;42713;42.676;23.352;2023-08-20T00:35:40;13.85;;;5.35;;
56830;SDS011;42713;42.676;23.352;2023-08-20T00:38:05;11.18;;;5.38;;
56830;SDS011;42713;42.676;23.352;2023-08-20T00:40:30;11.73;;;5.22;;
56830;SDS011;42713;42.676;23.352;2023-08-20T00:42:56;12.75;;;5.45;;
56830;SDS011;42713;42.676;23.352;2023-08-20T00:45:22;15.48;;;5.78;;
56830;SDS011;42713;42.676;23.352;2023-08-20T00:47:48;12.05;;;5.38;;
56830;SDS011;42713;42.676;23.352;2023-08-20T00:50:14;15.52;;;5.72;;
56830;SDS011;42713;42.676;23.352;2023-08-20T00:52:41;12.45;;;5.70;;
56830;SDS011;42713;42.676;23.352;2023-08-20T00:55:10;11.13;;;5.40;;
56830;SDS011;42713;42.676;23.352;2023-08-20T00:57:36;12.97;;;5.80;;
56830;SDS011;42713;42.676;23.352;2023-08-20T01:00:03;11.10;;;5.53;;
56830;SDS011;42713;42.676;23.352;2023-08-20T01:02:34;12.07;;;5.50;;
56830;SDS011;42713;42.676;23.352;2023-08-20T01:05:01;11.48;;;5.90;;
56830;SDS011;42713;42.676;23.352;2023-08-20T01:07:33;11.60;;;5.95;;
56830;SDS011;42713;42.676;23.352;2023-08-20T01:12:43;12.90;;;6.38;;
56830;SDS011;42713;42.676;23.352;2023-08-20T01:15:10;12.57;;;5.90;;
56830;SDS011;42713;42.676;23.352;2023-08-20T01:17:39;11.15;;;5.85;;
56830;SDS011;42713;42.676;23.352;2023-08-20T01:20:06;12.00;;;5.82;;
56830;SDS011;42713;42.676;23.352;2023-08-20T01:22:56;10.35;;;5.20;;
56830;SDS011;42713;42.676;23.352;2023-08-20T01:28:27;12.93;;;6.05;;
56830;SDS011;42713;42.676;23.352;2023-08-20T01:30:55;9.38;;;4.95;;
56830;SDS011;42713;42.676;23.352;2023-08-20T01:33:23;11.73;;;6.28;;
56830;SDS011;42713;42.676;23.352;2023-08-20T01:35:49;11.27;;;5.80;;
56830;SDS011;42713;42.676;23.352;2023-08-20T01:38:16;12.88;;;6.38;;
56830;SDS011;42713;42.676;23.352;2023-08-20T01:40:41;9.48;;;5.95;;
56830;SDS011;42713;42.676;23.352;2023-08-20T01:43:07;12.32;;;6.35;;
56830;SDS011;42713;42.676;23.352;2023-08-20T01:45:32;12.02;;;6.13;;
56830;SDS011;42713;42.676;23.352;2023-08-20T01:47:58;11.52;;;5.57;;
56830;SDS011;42713;42.676;23.352;2023-08-20T01:50:23;12.20;;;6.03;;
56830;SDS011;42713;42.676;23.352;2023-08-20T01:52:49;15.85;;;6.38;;
56830;SDS011;42713;42.676;23.352;2023-08-20T01:55:14;12.95;;;6.32;;
56830;SDS011;42713;42.676;23.352;2023-08-20T01:57:40;11.05;;;6.25;;
56830;SDS011;42713;42.676;23.352;2023-08-20T02:00:05;14.95;;;6.35;;
56830;SDS011;42713;42.676;23.352;2023-08-20T02:02:32;12.15;;;6.45;;
56830;SDS011;42713;42.676;23.352;2023-08-20T02:04:59;12.07;;;6.25;;
56830;SDS011;42713;42.676;23.352;2023-08-20T02:07:25;12.48;;;5.97;;
56830;SDS011;42713;42.676;23.352;2023-08-20T02:09:51;14.98;;;5.97;;
56830;SDS011;42713;42.676;23.352;2023-08-20T02:12:17;13.20;;;6.20;;
56830;SDS011;42713;42.676;23.352;2023-08-20T02:14:43;11.77;;;6.20;;
56830;SDS011;42713;42.676;23.352;2023-08-20T02:17:08;14.20;;;6.50;;
56830;SDS011;42713;42.676;23.352;2023-08-20T02:19:34;13.45;;;6.05;;
56830;SDS011;42713;42.676;23.352;2023-08-20T02:22:00;12.18;;;5.95;;
56830;SDS011;42713;42.676;23.352;2023-08-20T02:24:25;13.38;;;6.38;;
56830;SDS011;42713;42.676;23.352;2023-08-20T02:26:51;13.35;;;6.40;;
56830;SDS011;42713;42.676;23.352;2023-08-20T02:29:16;11.48;;;6.65;;
56830;SDS011;42713;42.676;23.352;2023-08-20T02:31:42;13.40;;;6.75;;
56830;SDS011;42713;42.676;23.352;2023-08-20T02:34:07;13.75;;;6.78;;
56830;SDS011;42713;42.676;23.352;2023-08-20T02:36:33;12.48;;;6.70;;
56830;SDS011;42713;42.676;23.352;2023-08-20T02:38:58;10.60;;;6.57;;
56830;SDS011;42713;42.676;23.352;2023-08-20T02:41:24;11.82;;;6.45;;
56830;SDS011;42713;42.676;23.352;2023-08-20T02:43:49;11.88;;;6.55;;
56830;SDS011;42713;42.676;23.352;2023-08-20T02:46:14;10.68;;;6.25;;
56830;SDS011;42713;42.676;23.352;2023-08-20T02:48:40;11.50;;;6.72;;
56830;SDS011;42713;42.676;23.352;2023-08-20T02:51:05;12.60;;;6.85;;
56830;SDS011;42713;42.676;23.352;2023-08-20T02:53:31;11.38;;;6.93;;
56830;SDS011;42713;42.676;23.352;2023-08-20T02:55:57;11.63;;;6.35;;
56830;SDS011;42713;42.676;23.352;2023-08-20T02:58:22;14.50;;;7.20;;
56830;SDS011;42713;42.676;23.352;2023-08-20T03:00:48;16.38;;;6.47;;
56830;SDS011;42713;42.676;23.352;2023-08-20T03:03:13;12.38;;;6.82;;
56830;SDS011;42713;42.676;23.352;2023-08-20T03:05:39;13.93;;;6.60;;
56830;SDS011;42713;42.676;23.352;2023-08-20T03:08:05;11.00;;;6.68;;
56830;SDS011;42713;42.676;23.352;2023-08-20T03:10:32;12.80;;;6.78;;
56830;SDS011;42713;42.676;23.352;2023-08-20T03:12:58;11.73;;;7.13;;
56830;SDS011;42713;42.676;23.352;2023-08-20T03:15:24;14.98;;;7.25;;
56830;SDS011;42713;42.676;23.352;2023-08-20T03:17:49;12.27;;;6.85;;
56830;SDS011;42713;42.676;23.352;2023-08-20T03:20:15;14.10;;;7.07;;
56830;SDS011;42713;42.676;23.352;2023-08-20T03:22:41;12.40;;;7.07;;
56830;SDS011;42713;42.676;23.352;2023-08-20T03:25:06;16.67;;;7.20;;
56830;SDS011;42713;42.676;23.352;2023-08-20T03:27:33;13.25;;;7.38;;
56830;SDS011;42713;42.676;23.352;2023-08-20T03:29:59;11.57;;;6.65;;
56830;SDS011;42713;42.676;23.352;2023-08-20T03:32:26;12.40;;;6.90;;
56830;SDS011;42713;42.676;23.352;2023-08-20T03:34:51;14.00;;;7.22;;
56830;SDS011;42713;42.676;23.352;2023-08-20T03:37:19;17.38;;;7.25;;
56830;SDS011;42713;42.676;23.352;2023-08-20T03:39:44;13.00;;;6.60;;
56830;SDS011;42713;42.676;23.352;2023-08-20T03:42:10;15.35;;;7.18;;
56830;SDS011;42713;42.676;23.352;2023-08-20T03:44:36;16.58;;;8.07;;
56830;SDS011;42713;42.676;23.352;2023-08-20T03:47:01;13.77;;;6.95;;
56830;SDS011;42713;42.676;23.352;2023-08-20T03:49:27;14.25;;;7.75;;
56830;SDS011;42713;42.676;23.352;2023-08-20T03:51:52;14.77;;;7.35;;
56830;SDS011;42713;42.676;23.352;2023-08-20T03:54:18;12.25;;;7.50;;
56830;SDS011;42713;42.676;23.352;2023-08-20T03:56:43;11.35;;;6.85;;
56830;SDS011;42713;42.676;23.352;2023-08-20T03:59:09;12.82;;;7.60;;
56830;SDS011;42713;42.676;23.352;2023-08-20T04:01:34;12.48;;;6.60;;
56830;SDS011;42713;42.676;23.352;2023-08-20T04:04:02;14.60;;;7.28;;
56830;SDS011;42713;42.676;23.352;2023-08-20T04:06:28;13.30;;;7.30;;
56830;SDS011;42713;42.676;23.352;2023-08-20T04:08:53;14.95;;;7.30;;
56830;SDS011;42713;42.676;23.352;2023-08-20T04:11:19;14.60;;;7.75;;
56830;SDS011;42713;42.676;23.352;2023-08-20T04:13:44;16.20;;;7.28;;
56830;SDS011;42713;42.676;23.352;2023-08-20T04:16:10;15.45;;;7.30;;
56830;SDS011;42713;42.676;23.352;2023-08-20T04:18:36;16.80;;;7.78;;
56830;SDS011;42713;42.676;23.352;2023-08-20T04:21:02;18.10;;;8.05;;
56830;SDS011;42713;42.676;23.352;2023-08-20T04:23:27;12.63;;;7.43;;
56830;SDS011;42713;42.676;23.352;2023-08-20T04:25:53;13.02;;;7.13;;
56830;SDS011;42713;42.676;23.352;2023-08-20T04:28:18;16.02;;;7.50;;
56830;SDS011;42713;42.676;23.352;2023-08-20T04:30:43;17.80;;;7.70;;
56830;SDS011;42713;42.676;23.352;2023-08-20T04:33:09;13.18;;;7.40;;
56830;SDS011;42713;42.676;23.352;2023-08-20T04:35:38;13.73;;;6.95;;
56830;SDS011;42713;42.676;23.352;2023-08-20T04:38:03;15.65;;;7.35;;
56830;SDS011;42713;42.676;23.352;2023-08-20T04:40:29;14.30;;;7.22;;
56830;SDS011;42713;42.676;23.352;2023-08-20T04:42:54;10.88;;;6.90;;
56830;SDS011;42713;42.676;23.352;2023-08-20T04:45:20;12.25;;;7.70;;
56830;SDS011;42713;42.676;23.352;2023-08-20T04:47:45;13.60;;;7.80;;
56830;SDS011;42713;42.676;23.352;2023-08-20T04:50:11;15.25;;;7.60;;
56830;SDS011;42713;42.676;23.352;2023-08-20T04:52:39;13.50;;;7.85;;
56830;SDS011;42713;42.676;23.352;2023-08-20T04:55:05;17.30;;;7.75;;
56830;SDS011;42713;42.676;23.352;2023-08-20T04:57:34;14.93;;;7.43;;
56830;SDS011;42713;42.676;23.352;2023-08-20T04:59:59;15.23;;;7.57;;
56830;SDS011;42713;42.676;23.352;2023-08-20T05:02:25;16.35;;;7.15;;
56830;SDS011;42713;42.676;23.352;2023-08-20T05:04:51;15.73;;;8.25;;
56830;SDS011;42713;42.676;23.352;2023-08-20T05:07:16;17.83;;;9.18;;
56830;SDS011;42713;42.676;23.352;2023-08-20T05:09:42;17.20;;;8.32;;
56830;SDS011;42713;42.676;23.352;2023-08-20T05:12:08;13.13;;;8.05;;
56830;SDS011;42713;42.676;23.352;2023-08-20T05:14:33;15.57;;;8.55;;
56830;SDS011;42713;42.676;23.352;2023-08-20T05:16:59;16.48;;;7.85;;
56830;SDS011;42713;42.676;23.352;2023-08-20T05:19:24;16.80;;;8.30;;
56830;SDS011;42713;42.676;23.352;2023-08-20T05:21:50;18.23;;;8.13;;
56830;SDS011;42713;42.676;23.352;2023-08-20T05:24:15;15.80;;;8.40;;
56830;SDS011;42713;42.676;23.352;2023-08-20T05:26:41;15.60;;;8.45;;
56830;SDS011;42713;42.676;23.352;2023-08-20T05:29:06;22.67;;;12.65;;
56830;SDS011;42713;42.676;23.352;2023-08-20T05:31:32;28.35;;;13.10;;
56830;SDS011;42713;42.676;23.352;2023-08-20T05:33:57;24.38;;;9.93;;
56830;SDS011;42713;42.676;23.352;2023-08-20T05:36:23;29.35;;;12.20;;
56830;SDS011;42713;42.676;23.352;2023-08-20T05:38:49;18.20;;;9.88;;
56830;SDS011;42713;42.676;23.352;2023-08-20T05:41:14;32.97;;;14.70;;
56830;SDS011;42713;42.676;23.352;2023-08-20T05:43:40;22.70;;;11.43;;
56830;SDS011;42713;42.676;23.352;2023-08-20T05:46:06;23.70;;;10.82;;
56830;SDS011;42713;42.676;23.352;2023-08-20T05:48:31;47.60;;;20.30;;
56830;SDS011;42713;42.676;23.352;2023-08-20T05:50:58;23.08;;;12.43;;
56830;SDS011;42713;42.676;23.352;2023-08-20T05:53:23;17.45;;;9.13;;
56830;SDS011;42713;42.676;23.352;2023-08-20T05:55:49;21.65;;;12.45;;
56830;SDS011;42713;42.676;23.352;2023-08-20T05:58:15;23.65;;;10.07;;
56830;SDS011;42713;42.676;23.352;2023-08-20T06:00:40;17.08;;;8.88;;
56830;SDS011;42713;42.676;23.352;2023-08-20T06:03:06;20.35;;;9.02;;
56830;SDS011;42713;42.676;23.352;2023-08-20T06:05:32;16.45;;;9.40;;
56830;SDS011;42713;42.676;23.352;2023-08-20T06:08:01;22.42;;;10.48;;
56830;SDS011;42713;42.676;23.352;2023-08-20T06:10:27;19.45;;;9.68;;
56830;SDS011;42713;42.676;23.352;2023-08-20T06:12:53;24.80;;;11.38;;
56830;SDS011;42713;42.676;23.352;2023-08-20T06:15:18;18.60;;;11.18;;
56830;SDS011;42713;42.676;23.352;2023-08-20T06:17:44;15.98;;;9.23;;
56830;SDS011;42713;42.676;23.352;2023-08-20T06:20:10;18.42;;;9.30;;
56830;SDS011;42713;42.676;23.352;2023-08-20T06:22:39;20.45;;;13.52;;
56830;SDS011;42713;42.676;23.352;2023-08-20T06:28:05;20.02;;;9.65;;
56830;SDS011;42713;42.676;23.352;2023-08-20T06:31:02;18.40;;;8.82;;
56830;SDS011;42713;42.676;23.352;2023-08-20T06:33:27;14.23;;;9.13;;
56830;SDS011;42713;42.676;23.352;2023-08-20T06:35:54;21.23;;;12.05;;
56830;SDS011;42713;42.676;23.352;2023-08-20T06:38:20;22.05;;;11.63;;
56830;SDS011;42713;42.676;23.352;2023-08-20T06:40:47;21.02;;;9.57;;
56830;SDS011;42713;42.676;23.352;2023-08-20T06:43:17;17.37;;;9.83;;
56830;SDS011;42713;42.676;23.352;2023-08-20T06:45:45;18.48;;;10.02;;
56830;SDS011;42713;42.676;23.352;2023-08-20T06:48:17;14.85;;;9.32;;
56830;SDS011;42713;42.676;23.352;2023-08-20T06:50:51;17.27;;;8.05;;
56830;SDS011;42713;42.676;23.352;2023-08-20T06:53:20;14.45;;;7.80;;
56830;SDS011;42713;42.676;23.352;2023-08-20T06:55:48;18.08;;;7.72;;
56830;SDS011;42713;42.676;23.352;2023-08-20T06:58:14;13.57;;;7.50;;
56830;SDS011;42713;42.676;23.352;2023-08-20T07:00:41;12.73;;;8.27;;
56830;SDS011;42713;42.676;23.352;2023-08-20T07:03:07;17.35;;;8.10;;
56830;SDS011;42713;42.676;23.352;2023-08-20T07:05:32;16.10;;;7.35;;
56830;SDS011;42713;42.676;23.352;2023-08-20T07:07:58;16.30;;;7.15;;
56830;SDS011;42713;42.676;23.352;2023-08-20T07:10:23;16.73;;;8.35;;
56830;SDS011;42713;42.676;23.352;2023-08-20T07:12:49;14.90;;;7.57;;
56830;SDS011;42713;42.676;23.352;2023-08-20T07:15:15;14.55;;;7.20;;
56830;SDS011;42713;42.676;23.352;2023-08-20T07:17:40;17.85;;;7.00;;
56830;SDS011;42713;42.676;23.352;2023-08-20T07:20:06;12.32;;;6.40;;
56830;SDS011;42713;42.676;23.352;2023-08-20T07:27:59;10.55;;;6.10;;
56830;SDS011;42713;42.676;23.352;2023-08-20T07:36:40;11.07;;;6.28;;
56830;SDS011;42713;42.676;23.352;2023-08-20T07:39:33;13.65;;;6.72;;
56830;SDS011;42713;42.676;23.352;2023-08-20T07:45:54;13.80;;;6.28;;
56830;SDS011;42713;42.676;23.352;2023-08-20T07:48:33;11.88;;;6.05;;
56830;SDS011;42713;42.676;23.352;2023-08-20T07:54:54;16.17;;;6.72;;
56830;SDS011;42713;42.676;23.352;2023-08-20T08:00:37;12.75;;;6.32;;
56830;SDS011;42713;42.676;23.352;2023-08-20T08:03:35;10.25;;;5.00;;
56830;SDS011;42713;42.676;23.352;2023-08-20T08:06:00;11.20;;;5.72;;
56830;SDS011;42713;42.676;23.352;2023-08-20T08:08:29;12.10;;;5.38;;
56830;SDS011;42713;42.676;23.352;2023-08-20T08:11:02;9.02;;;4.88;;
56830;SDS011;42713;42.676;23.352;2023-08-20T08:13:33;9.00;;;5.03;;
56830;SDS011;42713;42.676;23.352;2023-08-20T08:16:05;11.57;;;4.88;;
56830;SDS011;42713;42.676;23.352;2023-08-20T08:18:46;10.10;;;4.80;;
56830;SDS011;42713;42.676;23.352;2023-08-20T08:21:12;9.68;;;4.95;;
56830;SDS011;42713;42.676;23.352;2023-08-20T08:23:38;9.25;;;4.90;;
56830;SDS011;42713;42.676;23.352;2023-08-20T08:26:04;8.60;;;4.85;;
56830;SDS011;42713;42.676;23.352;2023-08-20T08:28:37;12.00;;;5.32;;
56830;SDS011;42713;42.676;23.352;2023-08-20T08:31:07;11.10;;;4.13;;
56830;SDS011;42713;42.676;23.352;2023-08-20T08:33:45;11.90;;;4.68;;
56830;SDS011;42713;42.676;23.352;2023-08-20T08:36:11;7.47;;;4.22;;
56830;SDS011;42713;42.676;23.352;2023-08-20T08:38:42;10.50;;;4.43;;
56830;SDS011;42713;42.676;23.352;2023-08-20T08:41:11;15.65;;;4.72;;
56830;SDS011;42713;42.676;23.352;2023-08-20T08:43:42;10.18;;;4.63;;
56830;SDS011;42713;42.676;23.352;2023-08-20T08:46:13;7.75;;;4.20;;
56830;SDS011;42713;42.676;23.352;2023-08-20T08:48:44;8.27;;;4.10;;
56830;SDS011;42713;42.676;23.352;2023-08-20T08:51:13;9.43;;;4.00;;
56830;SDS011;42713;42.676;23.352;2023-08-20T08:53:42;8.05;;;3.60;;
56830;SDS011;42713;42.676;23.352;2023-08-20T08:56:09;12.15;;;4.13;;
56830;SDS011;42713;42.676;23.352;2023-08-20T08:58:38;12.33;;;4.50;;
56830;SDS011;42713;42.676;23.352;2023-08-20T09:01:25;10.30;;;4.13;;
56830;SDS011;42713;42.676;23.352;2023-08-20T09:03:59;8.77;;;3.63;;
56830;SDS011;42713;42.676;23.352;2023-08-20T09:06:24;7.70;;;3.72;;
56830;SDS011;42713;42.676;23.352;2023-08-20T09:08:50;10.45;;;4.55;;
56830;SDS011;42713;42.676;23.352;2023-08-20T09:11:35;12.55;;;4.15;;
56830;SDS011;42713;42.676;23.352;2023-08-20T09:14:01;8.27;;;3.88;;
56830;SDS011;42713;42.676;23.352;2023-08-20T09:16:29;10.07;;;3.90;;
56830;SDS011;42713;42.676;23.352;2023-08-20T09:18:57;8.65;;;3.88;;
56830;SDS011;42713;42.676;23.352;2023-08-20T09:21:26;12.25;;;3.30;;
56830;SDS011;42713;42.676;23.352;2023-08-20T09:24:00;9.00;;;3.83;;
56830;SDS011;42713;42.676;23.352;2023-08-20T09:26:27;8.82;;;3.42;;
56830;SDS011;42713;42.676;23.352;2023-08-20T09:28:54;11.07;;;3.60;;
56830;SDS011;42713;42.676;23.352;2023-08-20T09:31:36;6.70;;;3.30;;
56830;SDS011;42713;42.676;23.352;2023-08-20T09:34:03;11.32;;;4.03;;
56830;SDS011;42713;42.676;23.352;2023-08-20T09:36:33;8.27;;;3.40;;
56830;SDS011;42713;42.676;23.352;2023-08-20T09:39:01;9.07;;;3.50;;
56830;SDS011;42713;42.676;23.352;2023-08-20T09:41:28;8.60;;;3.58;;
56830;SDS011;42713;42.676;23.352;2023-08-20T09:43:58;9.30;;;3.50;;
56830;SDS011;42713;42.676;23.352;2023-08-20T09:46:24;9.00;;;3.20;;
56830;SDS011;42713;42.676;23.352;2023-08-20T09:48:52;7.72;;;3.50;;
56830;SDS011;42713;42.676;23.352;2023-08-20T09:51:24;8.02;;;3.08;;
56830;SDS011;42713;42.676;23.352;2023-08-20T09:56:54;9.32;;;3.15;;
56830;SDS011;42713;42.676;23.352;2023-08-20T09:59:25;7.57;;;2.92;;
56830;SDS011;42713;42.676;23.352;2023-08-20T10:01:51;5.80;;;2.47;;
56830;SDS011;42713;42.676;23.352;2023-08-20T10:04:18;6.50;;;2.88;;
56830;SDS011;42713;42.676;23.352;2023-08-20T10:06:46;8.05;;;2.50;;
56830;SDS011;42713;42.676;23.352;2023-08-20T10:09:11;7.30;;;3.10;;
56830;SDS011;42713;42.676;23.352;2023-08-20T10:11:38;6.70;;;2.88;;
56830;SDS011;42713;42.676;23.352;2023-08-20T10:14:05;9.45;;;2.88;;
56830;SDS011;42713;42.676;23.352;2023-08-20T10:16:32;6.82;;;2.78;;
56830;SDS011;42713;42.676;23.352;2023-08-20T10:19:01;6.22;;;2.58;;
56830;SDS011;42713;42.676;23.352;2023-08-20T10:21:33;6.88;;;2.67;;
56830;SDS011;42713;42.676;23.352;2023-08-20T10:24:05;9.10;;;3.10;;
56830;SDS011;42713;42.676;23.352;2023-08-20T10:26:34;9.25;;;2.80;;
56830;SDS011;42713;42.676;23.352;2023-08-20T10:32:10;6.35;;;2.90;;
56830;SDS011;42713;42.676;23.352;2023-08-20T10:34:42;7.95;;;2.72;;
56830;SDS011;42713;42.676;23.352;2023-08-20T10:37:14;9.20;;;2.65;;
56830;SDS011;42713;42.676;23.352;2023-08-20T10:39:53;7.35;;;2.67;;
56830;SDS011;42713;42.676;23.352;2023-08-20T10:45:05;6.68;;;2.97;;
56830;SDS011;42713;42.676;23.352;2023-08-20T10:50:09;6.55;;;2.90;;
56830;SDS011;42713;42.676;23.352;2023-08-20T11:08:03;9.20;;;3.58;;
56830;SDS011;42713;42.676;23.352;2023-08-20T11:20:54;7.57;;;2.63;;
56830;SDS011;42713;42.676;23.352;2023-08-20T11:24:05;6.97;;;2.70;;
56830;SDS011;42713;42.676;23.352;2023-08-20T11:27:26;7.97;;;2.50;;
56830;SDS011;42713;42.676;23.352;2023-08-20T11:30:18;9.10;;;2.88;;
56830;SDS011;42713;42.676;23.352;2023-08-20T11:33:13;5.97;;;2.88;;
56830;SDS011;42713;42.676;23.352;2023-08-20T12:13:36;8.23;;;3.30;;
56830;SDS011;42713;42.676;23.352;2023-08-20T12:22:40;6.85;;;2.92;;
56830;SDS011;42713;42.676;23.352;2023-08-20T12:25:06;7.13;;;3.03;;
56830;SDS011;42713;42.676;23.352;2023-08-20T12:27:33;7.70;;;3.00;;
56830;SDS011;42713;42.676;23.352;2023-08-20T12:29:59;7.25;;;2.97;;
56830;SDS011;42713;42.676;23.352;2023-08-20T12:32:24;9.30;;;3.17;;
56830;SDS011;42713;42.676;23.352;2023-08-20T12:34:50;10.88;;;3.25;;
56830;SDS011;42713;42.676;23.352;2023-08-20T12:37:16;6.65;;;2.70;;
56830;SDS011;42713;42.676;23.352;2023-08-20T12:39:41;6.63;;;3.00;;
56830;SDS011;42713;42.676;23.352;2023-08-20T12:42:07;7.22;;;3.10;;
56830;SDS011;42713;42.676;23.352;2023-08-20T12:44:33;6.47;;;3.10;;
56830;SDS011;42713;42.676;23.352;2023-08-20T12:46:58;6.80;;;3.00;;
56830;SDS011;42713;42.676;23.352;2023-08-20T12:49:24;8.30;;;2.90;;
56830;SDS011;42713;42.676;23.352;2023-08-20T12:51:49;7.60;;;3.00;;
56830;SDS011;42713;42.676;23.352;2023-08-20T12:54:16;9.18;;;3.20;;
56830;SDS011;42713;42.676;23.352;2023-08-20T12:56:42;8.18;;;2.75;;
56830;SDS011;42713;42.676;23.352;2023-08-20T12:59:07;6.55;;;3.00;;
56830;SDS011;42713;42.676;23.352;2023-08-20T13:01:33;9.55;;;2.72;;
56830;SDS011;42713;42.676;23.352;2023-08-20T13:03:58;7.75;;;3.25;;
56830;SDS011;42713;42.676;23.352;2023-08-20T13:06:24;9.93;;;2.63;;
56830;SDS011;42713;42.676;23.352;2023-08-20T13:08:50;9.52;;;2.90;;
56830;SDS011;42713;42.676;23.352;2023-08-20T13:11:16;8.93;;;2.80;;
56830;SDS011;42713;42.676;23.352;2023-08-20T13:13:48;8.80;;;3.05;;
56830;SDS011;42713;42.676;23.352;2023-08-20T13:16:14;6.63;;;2.47;;
56830;SDS011;42713;42.676;23.352;2023-08-20T13:18:39;10.43;;;2.58;;
56830;SDS011;42713;42.676;23.352;2023-08-20T13:21:05;8.05;;;2.92;;
56830;SDS011;42713;42.676;23.352;2023-08-20T13:23:30;8.27;;;3.00;;
56830;SDS011;42713;42.676;23.352;2023-08-20T13:25:56;8.23;;;2.63;;
56830;SDS011;42713;42.676;23.352;2023-08-20T13:28:22;9.98;;;3.10;;
56830;SDS011;42713;42.676;23.352;2023-08-20T13:30:47;5.93;;;2.67;;
56830;SDS011;42713;42.676;23.352;2023-08-20T13:33:13;4.97;;;2.58;;
56830;SDS011;42713;42.676;23.352;2023-08-20T13:35:40;5.28;;;2.65;;
56830;SDS011;42713;42.676;23.352;2023-08-20T13:38:06;7.78;;;2.70;;
56830;SDS011;42713;42.676;23.352;2023-08-20T13:40:31;7.72;;;2.70;;
56830;SDS011;42713;42.676;23.352;2023-08-20T13:42:57;8.90;;;2.90;;
56830;SDS011;42713;42.676;23.352;2023-08-20T13:45:22;10.82;;;2.97;;
56830;SDS011;42713;42.676;23.352;2023-08-20T13:47:48;7.30;;;2.80;;
56830;SDS011;42713;42.676;23.352;2023-08-20T13:50:13;7.07;;;2.40;;
56830;SDS011;42713;42.676;23.352;2023-08-20T13:52:41;8.70;;;2.80;;
56830;SDS011;42713;42.676;23.352;2023-08-20T13:55:19;6.78;;;2.85;;
56830;SDS011;42713;42.676;23.352;2023-08-20T14:08:12;8.02;;;2.50;;
56830;SDS011;42713;42.676;23.352;2023-08-20T14:13:11;6.87;;;2.30;;
56830;SDS011;42713;42.676;23.352;2023-08-20T14:15:42;7.38;;;3.10;;
56830;SDS011;42713;42.676;23.352;2023-08-20T14:18:19;5.78;;;2.35;;
56830;SDS011;42713;42.676;23.352;2023-08-20T14:20:51;5.53;;;2.40;;
56830;SDS011;42713;42.676;23.352;2023-08-20T14:23:29;9.57;;;2.70;;
56830;SDS011;42713;42.676;23.352;2023-08-20T14:25:57;7.65;;;2.53;;
56830;SDS011;42713;42.676;23.352;2023-08-20T14:28:26;7.68;;;2.55;;
56830;SDS011;42713;42.676;23.352;2023-08-20T14:31:03;10.00;;;2.50;;
56830;SDS011;42713;42.676;23.352;2023-08-20T14:33:34;6.47;;;2.50;;
56830;SDS011;42713;42.676;23.352;2023-08-20T14:36:02;6.20;;;2.23;;
56830;SDS011;42713;42.676;23.352;2023-08-20T14:38:34;5.28;;;2.10;;
56830;SDS011;42713;42.676;23.352;2023-08-20T14:41:07;5.53;;;2.20;;
56830;SDS011;42713;42.676;23.352;2023-08-20T14:43:46;5.60;;;2.13;;
56830;SDS011;42713;42.676;23.352;2023-08-20T14:46:12;7.38;;;2.72;;
56830;SDS011;42713;42.676;23.352;2023-08-20T14:48:37;10.15;;;2.50;;
56830;SDS011;42713;42.676;23.352;2023-08-20T14:51:08;9.77;;;2.42;;
56830;SDS011;42713;42.676;23.352;2023-08-20T14:53:38;10.35;;;2.35;;
56830;SDS011;42713;42.676;23.352;2023-08-20T14:56:32;6.22;;;2.40;;
56830;SDS011;42713;42.676;23.352;2023-08-20T14:59:06;7.18;;;2.88;;
56830;SDS011;42713;42.676;23.352;2023-08-20T15:01:32;7.25;;;2.13;;
56830;SDS011;42713;42.676;23.352;2023-08-20T15:04:09;5.75;;;2.55;;
56830;SDS011;42713;42.676;23.352;2023-08-20T15:06:37;8.48;;;2.72;;
56830;SDS011;42713;42.676;23.352;2023-08-20T15:09:05;5.97;;;2.45;;
56830;SDS011;42713;42.676;23.352;2023-08-20T15:42:06;10.57;;;2.05;;
56830;SDS011;42713;42.676;23.352;2023-08-20T15:52:26;6.38;;;3.03;;
56830;SDS011;42713;42.676;23.352;2023-08-20T15:54:52;8.75;;;2.40;;
56830;SDS011;42713;42.676;23.352;2023-08-20T15:57:18;6.88;;;2.55;;
56830;SDS011;42713;42.676;23.352;2023-08-20T15:59:46;10.27;;;2.60;;
56830;SDS011;42713;42.676;23.352;2023-08-20T16:02:15;9.43;;;2.50;;
56830;SDS011;42713;42.676;23.352;2023-08-20T16:04:41;15.45;;;2.97;;
56830;SDS011;42713;42.676;23.352;2023-08-20T16:07:07;7.60;;;2.58;;
56830;SDS011;42713;42.676;23.352;2023-08-20T16:09:33;10.05;;;2.50;;
56830;SDS011;42713;42.676;23.352;2023-08-20T16:14:27;6.45;;;2.65;;
56830;SDS011;42713;42.676;23.352;2023-08-20T16:16:53;7.45;;;2.60;;
56830;SDS011;42713;42.676;23.352;2023-08-20T16:19:18;6.32;;;2.50;;
56830;SDS011;42713;42.676;23.352;2023-08-20T16:21:44;12.82;;;2.80;;
56830;SDS011;42713;42.676;23.352;2023-08-20T16:24:10;10.80;;;3.38;;
56830;SDS011;42713;42.676;23.352;2023-08-20T16:26:37;6.50;;;2.50;;
56830;SDS011;42713;42.676;23.352;2023-08-20T16:29:03;8.10;;;2.60;;
56830;SDS011;42713;42.676;23.352;2023-08-20T16:31:28;7.53;;;2.58;;
56830;SDS011;42713;42.676;23.352;2023-08-20T16:33:54;7.68;;;2.90;;
56830;SDS011;42713;42.676;23.352;2023-08-20T16:36:19;10.25;;;2.60;;
56830;SDS011;42713;42.676;23.352;2023-08-20T16:38:45;10.38;;;3.10;;
56830;SDS011;42713;42.676;23.352;2023-08-20T16:41:11;10.38;;;2.80;;
56830;SDS011;42713;42.676;23.352;2023-08-20T16:43:36;12.63;;;2.80;;
56830;SDS011;42713;42.676;23.352;2023-08-20T16:46:02;5.95;;;2.58;;
56830;SDS011;42713;42.676;23.352;2023-08-20T16:48:30;9.43;;;2.60;;
56830;SDS011;42713;42.676;23.352;2023-08-20T16:50:58;9.48;;;2.90;;
56830;SDS011;42713;42.676;23.352;2023-08-20T16:53:24;6.13;;;2.72;;
56830;SDS011;42713;42.676;23.352;2023-08-20T16:55:51;7.68;;;3.10;;
56830;SDS011;42713;42.676;23.352;2023-08-20T16:58:18;8.85;;;3.05;;
56830;SDS011;42713;42.676;23.352;2023-08-20T17:00:45;7.50;;;3.05;;
56830;SDS011;42713;42.676;23.352;2023-08-20T17:03:11;7.50;;;2.75;;
56830;SDS011;42713;42.676;23.352;2023-08-20T17:05:37;9.75;;;3.17;;
56830;SDS011;42713;42.676;23.352;2023-08-20T17:08:03;10.40;;;3.30;;
56830;SDS011;42713;42.676;23.352;2023-08-20T17:10:28;9.30;;;3.10;;
56830;SDS011;42713;42.676;23.352;2023-08-20T17:12:54;8.63;;;2.85;;
56830;SDS011;42713;42.676;23.352;2023-08-20T17:15:20;6.53;;;2.92;;
56830;SDS011;42713;42.676;23.352;2023-08-20T17:17:46;10.68;;;2.90;;